CST,Max TemperatureF,Mean TemperatureF,Min TemperatureF,Max Dew PointF,MeanDew PointF,Min DewpointF,Max Humidity, Mean Humidity, Min Humidity, Max Sea Level PressureIn, Mean Sea Level PressureIn, Min Sea Level PressureIn, Max VisibilityMiles, Mean VisibilityMiles, Min VisibilityMiles, Max Wind SpeedMPH, Mean Wind SpeedMPH, Max Gust SpeedMPH,PrecipitationIn, CloudCover, Events, WindDirDegrees
2014-1-1,35,22,10,25,14,1,80,71,59,30.36,30.10,29.95,10,9,1,28,15,34,0.00,2,,19
2014-1-2,28,16,5,18,7,-2,85,70,58,30.43,30.38,30.35,10,10,10,16,9,,0.00,0,,161
2014-1-3,44,30,15,25,17,9,74,57,42,30.35,30.01,29.70,10,10,10,34,19,41,0.00,0,,180
2014-1-4,41,28,15,27,17,9,80,63,45,30.06,29.85,29.66,10,9,2,29,20,36,0.00,4,,25
2014-1-5,15,8,1,10,-2,-9,79,62,48,30.55,30.30,30.03,10,7,2,29,20,37,0.00,2,,359
2014-1-6,12,5,-2,-2,-10,-17,67,52,44,30.60,30.50,30.34,10,10,10,18,11,24,0.00,0,,278
2014-1-7,37,22,6,23,13,-2,73,64,52,30.33,30.15,30.08,10,10,10,20,13,23,0.00,0,,192
2014-1-8,37,32,26,21,19,18,69,60,48,30.28,30.19,30.10,10,10,10,12,8,17,0.00,4,,89
2014-1-9,33,28,23,30,23,16,87,79,69,30.26,30.12,29.93,10,6,0,15,8,21,0.00,8,,136
2014-1-10,39,36,33,37,32,28,93,84,70,29.92,29.68,29.57,10,6,0,17,12,23,0.00,6,,233
2014-1-11,50,39,28,32,27,21,87,65,43,29.96,29.89,29.73,10,10,10,21,11,28,0.00,0,,272
2014-1-12,62,50,37,32,27,21,61,46,29,29.86,29.64,29.47,10,10,10,25,16,33,0.00,0,,218
2014-1-13,51,42,32,30,24,19,75,56,30,29.99,29.88,29.74,10,10,10,15,9,21,0.00,0,,278
2014-1-14,44,36,28,28,18,10,65,47,25,30.32,30.11,29.84,10,10,10,28,13,38,0.00,1,,317
2014-1-15,48,34,21,25,20,14,86,57,34,30.31,30.12,29.85,10,10,10,21,8,24,0.00,2,,250
2014-1-16,51,40,28,25,18,9,70,44,20,30.18,30.00,29.86,10,10,10,38,16,47,0.00,0,,323
2014-1-17,42,32,23,16,12,7,64,46,29,30.24,30.16,29.99,10,10,10,24,16,33,0.00,0,,297
2014-1-18,51,40,28,25,19,12,69,46,30,30.16,29.99,29.86,10,10,10,39,15,51,0.00,1,,302
2014-1-19,64,44,24,23,20,18,74,46,19,30.16,29.99,29.88,10,10,10,26,9,36,0.00,0,,230
2014-1-20,53,38,21,27,19,5,60,43,28,30.38,30.06,29.86,10,10,10,28,11,41,0.00,0,,355
2014-1-21,26,16,6,3,-2,-9,67,43,24,30.49,30.31,30.08,10,10,10,28,15,37,0.00,0,,275
2014-1-22,41,28,12,19,11,-6,69,49,33,30.46,30.21,30.10,10,10,10,28,11,36,0.00,1,,342
2014-1-23,17,11,5,-6,-9,-11,52,44,30,30.81,30.70,30.47,10,10,10,23,16,30,0.00,1,,350
2014-1-24,46,26,6,18,5,-8,57,40,27,30.66,30.23,29.92,10,10,10,28,15,36,0.00,1,,221
2014-1-25,55,45,35,30,25,19,61,47,33,30.09,29.99,29.84,10,10,10,24,11,31,0.00,1,,287
2014-1-26,59,42,23,28,22,-2,70,47,25,30.24,29.83,29.73,10,10,6,41,15,55,0.00,1,,312
2014-1-27,21,16,10,-2,-9,-13,41,36,30,30.48,30.41,30.25,10,10,10,30,18,37,0.00,1,,11
2014-1-28,28,17,6,9,-3,-8,57,42,29,30.46,30.38,30.29,10,10,10,17,6,25,0.00,2,,239
2014-1-29,48,29,10,14,6,0,85,41,19,30.28,30.07,29.82,10,10,10,31,14,40,0.00,0,,196
2014-1-30,48,39,30,19,14,7,51,40,29,29.95,29.77,29.60,10,10,10,32,23,43,0.00,1,,214
2014-1-31,30,26,21,18,13,7,86,66,46,30.00,29.93,29.83,10,9,2,17,13,25,0.00,6,,48